sensor_id;sensor_type;location;lat;lon;timestamp;P1;durP1;ratioP1;P2;durP2;ratioP2
5147;SDS011;2592;48.140;7.614;2024-01-15T00:00:37;42.07;;;25.53;;
5147;SDS011;2592;48.140;7.614;2024-01-15T00:03:04;36.70;;;24.47;;
5147;SDS011;2592;48.140;7.614;2024-01-15T00:05:32;41.23;;;26.80;;
5147;SDS011;2592;48.140;7.614;2024-01-15T00:07:58;43.30;;;26.70;;
5147;SDS011;2592;48.140;7.614;2024-01-15T00:10:24;43.60;;;26.47;;
5147;SDS011;2592;48.140;7.614;2024-01-15T00:12:51;42.90;;;27.33;;
5147;SDS011;2592;48.140;7.614;2024-01-15T00:15:17;38.03;;;25.23;;
5147;SDS011;2592;48.140;7.614;2024-01-15T00:17:44;44.20;;;26.43;;
5147;SDS011;2592;48.140;7.614;2024-01-15T00:20:10;44.90;;;26.73;;
5147;SDS011;2592;48.140;7.614;2024-01-15T00:22:38;38.87;;;25.47;;
5147;SDS011;2592;48.140;7.614;2024-01-15T00:25:05;43.07;;;27.10;;
5147;SDS011;2592;48.140;7.614;2024-01-15T00:27:31;42.73;;;26.70;;
5147;SDS011;2592;48.140;7.614;2024-01-15T00:29:58;44.67;;;27.57;;
5147;SDS011;2592;48.140;7.614;2024-01-15T00:32:24;46.10;;;27.27;;
5147;SDS011;2592;48.140;7.614;2024-01-15T00:34:51;47.80;;;28.00;;
5147;SDS011;2592;48.140;7.614;2024-01-15T00:37:17;50.73;;;31.50;;
5147;SDS011;2592;48.140;7.614;2024-01-15T00:39:45;51.30;;;30.70;;
5147;SDS011;2592;48.140;7.614;2024-01-15T00:42:11;51.80;;;29.50;;
5147;SDS011;2592;48.140;7.614;2024-01-15T00:44:38;50.70;;;31.97;;
5147;SDS011;2592;48.140;7.614;2024-01-15T00:47:04;49.60;;;30.60;;
5147;SDS011;2592;48.140;7.614;2024-01-15T00:49:31;52.57;;;31.53;;
5147;SDS011;2592;48.140;7.614;2024-01-15T00:51:57;54.83;;;32.93;;
5147;SDS011;2592;48.140;7.614;2024-01-15T00:54:24;55.93;;;35.53;;
5147;SDS011;2592;48.140;7.614;2024-01-15T00:56:51;54.50;;;32.60;;
5147;SDS011;2592;48.140;7.614;2024-01-15T00:59:18;52.17;;;30.67;;
5147;SDS011;2592;48.140;7.614;2024-01-15T01:01:45;54.07;;;32.43;;
5147;SDS011;2592;48.140;7.614;2024-01-15T01:04:12;53.50;;;34.20;;
5147;SDS011;2592;48.140;7.614;2024-01-15T01:06:39;48.73;;;30.73;;
5147;SDS011;2592;48.140;7.614;2024-01-15T01:09:05;55.77;;;32.00;;
5147;SDS011;2592;48.140;7.614;2024-01-15T01:11:31;51.90;;;31.10;;
5147;SDS011;2592;48.140;7.614;2024-01-15T01:13:59;52.70;;;32.60;;
5147;SDS011;2592;48.140;7.614;2024-01-15T01:16:26;50.50;;;31.13;;
5147;SDS011;2592;48.140;7.614;2024-01-15T01:18:53;49.87;;;30.97;;
5147;SDS011;2592;48.140;7.614;2024-01-15T01:21:19;54.90;;;33.83;;
5147;SDS011;2592;48.140;7.614;2024-01-15T01:23:46;50.40;;;30.27;;
5147;SDS011;2592;48.140;7.614;2024-01-15T01:26:15;52.60;;;31.57;;
5147;SDS011;2592;48.140;7.614;2024-01-15T01:28:41;54.27;;;33.57;;
5147;SDS011;2592;48.140;7.614;2024-01-15T01:31:09;49.90;;;30.73;;
5147;SDS011;2592;48.140;7.614;2024-01-15T01:33:35;55.03;;;32.17;;
5147;SDS011;2592;48.140;7.614;2024-01-15T01:36:06;51.87;;;31.90;;
5147;SDS011;2592;48.140;7.614;2024-01-15T01:38:33;53.57;;;31.60;;
5147;SDS011;2592;48.140;7.614;2024-01-15T01:40:59;48.83;;;31.23;;
5147;SDS011;2592;48.140;7.614;2024-01-15T01:43:25;51.40;;;32.00;;
5147;SDS011;2592;48.140;7.614;2024-01-15T01:45:52;51.87;;;29.73;;
5147;SDS011;2592;48.140;7.614;2024-01-15T01:48:20;52.97;;;30.93;;
5147;SDS011;2592;48.140;7.614;2024-01-15T01:50:46;50.83;;;32.43;;
5147;SDS011;2592;48.140;7.614;2024-01-15T01:53:12;50.90;;;32.67;;
5147;SDS011;2592;48.140;7.614;2024-01-15T01:55:40;51.47;;;32.77;;
5147;SDS011;2592;48.140;7.614;2024-01-15T01:58:06;51.90;;;30.93;;
5147;SDS011;2592;48.140;7.614;2024-01-15T02:00:33;51.50;;;32.27;;
5147;SDS011;2592;48.140;7.614;2024-01-15T02:03:00;52.93;;;33.43;;
5147;SDS011;2592;48.140;7.614;2024-01-15T02:05:29;57.00;;;34.13;;
5147;SDS011;2592;48.140;7.614;2024-01-15T02:07:57;59.57;;;33.53;;
5147;SDS011;2592;48.140;7.614;2024-01-15T02:10:23;55.90;;;32.20;;
5147;SDS011;2592;48.140;7.614;2024-01-15T02:12:49;49.07;;;32.03;;
5147;SDS011;2592;48.140;7.614;2024-01-15T02:15:16;49.90;;;32.30;;
5147;SDS011;2592;48.140;7.614;2024-01-15T02:17:58;56.57;;;31.20;;
5147;SDS011;2592;48.140;7.614;2024-01-15T02:20:25;55.13;;;32.43;;
5147;SDS011;2592;48.140;7.614;2024-01-15T02:22:52;49.97;;;31.13;;
5147;SDS011;2592;48.140;7.614;2024-01-15T02:25:20;47.10;;;30.17;;
5147;SDS011;2592;48.140;7.614;2024-01-15T02:27:47;48.40;;;30.87;;
5147;SDS011;2592;48.140;7.614;2024-01-15T02:30:13;54.00;;;32.17;;
5147;SDS011;2592;48.140;7.614;2024-01-15T02:32:39;52.60;;;31.03;;
5147;SDS011;2592;48.140;7.614;2024-01-15T02:35:06;51.23;;;32.10;;
5147;SDS011;2592;48.140;7.614;2024-01-15T02:37:33;54.43;;;31.43;;
5147;SDS011;2592;48.140;7.614;2024-01-15T02:39:59;48.07;;;30.40;;
5147;SDS011;2592;48.140;7.614;2024-01-15T02:42:27;46.37;;;29.57;;
5147;SDS011;2592;48.140;7.614;2024-01-15T02:44:53;52.27;;;31.30;;
5147;SDS011;2592;48.140;7.614;2024-01-15T02:47:20;53.30;;;32.87;;
5147;SDS011;2592;48.140;7.614;2024-01-15T02:49:46;55.63;;;32.53;;
5147;SDS011;2592;48.140;7.614;2024-01-15T02:52:13;50.43;;;30.80;;
5147;SDS011;2592;48.140;7.614;2024-01-15T02:54:39;52.77;;;32.40;;
5147;SDS011;2592;48.140;7.614;2024-01-15T02:57:05;54.27;;;32.50;;
5147;SDS011;2592;48.140;7.614;2024-01-15T02:59:33;56.87;;;31.33;;
5147;SDS011;2592;48.140;7.614;2024-01-15T03:02:00;51.33;;;32.07;;
5147;SDS011;2592;48.140;7.614;2024-01-15T03:04:26;52.73;;;32.73;;
5147;SDS011;2592;48.140;7.614;2024-01-15T03:06:53;48.90;;;30.00;;
5147;SDS011;2592;48.140;7.614;2024-01-15T03:09:19;51.03;;;31.17;;
5147;SDS011;2592;48.140;7.614;2024-01-15T03:11:46;52.30;;;32.03;;
5147;SDS011;2592;48.140;7.614;2024-01-15T03:14:13;49.13;;;31.43;;
5147;SDS011;2592;48.140;7.614;2024-01-15T03:16:41;49.80;;;31.40;;
5147;SDS011;2592;48.140;7.614;2024-01-15T03:19:08;49.07;;;30.53;;
5147;SDS011;2592;48.140;7.614;2024-01-15T03:21:34;50.60;;;30.67;;
5147;SDS011;2592;48.140;7.614;2024-01-15T03:24:00;51.50;;;31.57;;
5147;SDS011;2592;48.140;7.614;2024-01-15T03:26:27;46.37;;;28.10;;
5147;SDS011;2592;48.140;7.614;2024-01-15T03:28:53;50.83;;;30.97;;
5147;SDS011;2592;48.140;7.614;2024-01-15T03:31:20;50.20;;;31.57;;
5147;SDS011;2592;48.140;7.614;2024-01-15T03:33:47;50.10;;;30.20;;
5147;SDS011;2592;48.140;7.614;2024-01-15T03:36:14;50.80;;;30.20;;
5147;SDS011;2592;48.140;7.614;2024-01-15T03:38:40;47.77;;;29.50;;
5147;SDS011;2592;48.140;7.614;2024-01-15T03:41:07;49.33;;;29.83;;
5147;SDS011;2592;48.140;7.614;2024-01-15T03:43:34;50.00;;;30.27;;
5147;SDS011;2592;48.140;7.614;2024-01-15T03:46:00;45.00;;;29.57;;
5147;SDS011;2592;48.140;7.614;2024-01-15T03:48:27;55.57;;;31.77;;
5147;SDS011;2592;48.140;7.614;2024-01-15T03:50:56;54.80;;;32.40;;
5147;SDS011;2592;48.140;7.614;2024-01-15T03:53:22;45.43;;;30.23;;
5147;SDS011;2592;48.140;7.614;2024-01-15T03:55:49;49.23;;;29.70;;
5147;SDS011;2592;48.140;7.614;2024-01-15T03:58:15;48.67;;;29.13;;
5147;SDS011;2592;48.140;7.614;2024-01-15T04:00:42;51.53;;;30.83;;
5147;SDS011;2592;48.140;7.614;2024-01-15T04:03:08;49.30;;;29.90;;
5147;SDS011;2592;48.140;7.614;2024-01-15T04:05:35;50.70;;;31.43;;
5147;SDS011;2592;48.140;7.614;2024-01-15T04:08:03;55.00;;;30.73;;
5147;SDS011;2592;48.140;7.614;2024-01-15T04:10:29;64.23;;;37.40;;
5147;SDS011;2592;48.140;7.614;2024-01-15T04:12:56;53.40;;;32.27;;
5147;SDS011;2592;48.140;7.614;2024-01-15T04:15:24;48.00;;;30.67;;
5147;SDS011;2592;48.140;7.614;2024-01-15T04:17:51;49.73;;;31.00;;
5147;SDS011;2592;48.140;7.614;2024-01-15T04:20:17;56.10;;;32.87;;
5147;SDS011;2592;48.140;7.614;2024-01-15T04:22:44;56.80;;;33.27;;
5147;SDS011;2592;48.140;7.614;2024-01-15T04:25:12;56.27;;;33.23;;
5147;SDS011;2592;48.140;7.614;2024-01-15T04:27:38;69.90;;;39.00;;
5147;SDS011;2592;48.140;7.614;2024-01-15T04:30:05;55.97;;;32.43;;
5147;SDS011;2592;48.140;7.614;2024-01-15T04:32:32;57.40;;;35.43;;
5147;SDS011;2592;48.140;7.614;2024-01-15T04:34:58;54.70;;;31.90;;
5147;SDS011;2592;48.140;7.614;2024-01-15T04:37:24;47.87;;;29.10;;
5147;SDS011;2592;48.140;7.614;2024-01-15T04:39:51;53.97;;;31.00;;
5147;SDS011;2592;48.140;7.614;2024-01-15T04:42:21;54.43;;;31.60;;
5147;SDS011;2592;48.140;7.614;2024-01-15T04:44:47;48.50;;;28.80;;
5147;SDS011;2592;48.140;7.614;2024-01-15T04:47:14;46.63;;;29.80;;
5147;SDS011;2592;48.140;7.614;2024-01-15T04:49:40;48.50;;;29.20;;
5147;SDS011;2592;48.140;7.614;2024-01-15T04:52:07;49.90;;;28.60;;
5147;SDS011;2592;48.140;7.614;2024-01-15T04:54:35;49.13;;;29.60;;
5147;SDS011;2592;48.140;7.614;2024-01-15T04:57:01;47.20;;;29.67;;
5147;SDS011;2592;48.140;7.614;2024-01-15T04:59:29;49.33;;;28.80;;
5147;SDS011;2592;48.140;7.614;2024-01-15T05:01:56;52.77;;;31.80;;
5147;SDS011;2592;48.140;7.614;2024-01-15T05:04:22;48.63;;;30.73;;
5147;SDS011;2592;48.140;7.614;2024-01-15T05:06:49;51.37;;;29.47;;
5147;SDS011;2592;48.140;7.614;2024-01-15T05:09:16;47.27;;;28.90;;
5147;SDS011;2592;48.140;7.614;2024-01-15T05:11:43;40.50;;;26.37;;
5147;SDS011;2592;48.140;7.614;2024-01-15T05:14:09;47.47;;;29.57;;
5147;SDS011;2592;48.140;7.614;2024-01-15T05:16:39;49.63;;;30.00;;
5147;SDS011;2592;48.140;7.614;2024-01-15T05:19:06;69.13;;;40.03;;
5147;SDS011;2592;48.140;7.614;2024-01-15T05:21:33;67.60;;;38.77;;
5147;SDS011;2592;48.140;7.614;2024-01-15T05:23:59;54.73;;;32.83;;
5147;SDS011;2592;48.140;7.614;2024-01-15T05:26:26;49.57;;;31.17;;
5147;SDS011;2592;48.140;7.614;2024-01-15T05:28:52;59.50;;;36.03;;
5147;SDS011;2592;48.140;7.614;2024-01-15T05:31:18;71.93;;;40.17;;
5147;SDS011;2592;48.140;7.614;2024-01-15T05:33:46;57.23;;;34.67;;
5147;SDS011;2592;48.140;7.614;2024-01-15T05:36:13;67.90;;;37.70;;
5147;SDS011;2592;48.140;7.614;2024-01-15T05:38:39;52.70;;;31.33;;
5147;SDS011;2592;48.140;7.614;2024-01-15T05:41:05;206.80;;;90.37;;
5147;SDS011;2592;48.140;7.614;2024-01-15T05:43:32;48.10;;;29.33;;
5147;SDS011;2592;48.140;7.614;2024-01-15T05:45:59;48.63;;;28.60;;
5147;SDS011;2592;48.140;7.614;2024-01-15T05:48:26;40.90;;;26.60;;
5147;SDS011;2592;48.140;7.614;2024-01-15T05:50:54;53.90;;;28.97;;
5147;SDS011;2592;48.140;7.614;2024-01-15T05:53:20;46.00;;;29.47;;
5147;SDS011;2592;48.140;7.614;2024-01-15T05:55:46;43.63;;;27.63;;
5147;SDS011;2592;48.140;7.614;2024-01-15T05:58:13;51.53;;;30.30;;
5147;SDS011;2592;48.140;7.614;2024-01-15T06:00:39;46.70;;;28.27;;
5147;SDS011;2592;48.140;7.614;2024-01-15T06:03:06;48.90;;;28.10;;
5147;SDS011;2592;48.140;7.614;2024-01-15T06:05:32;49.83;;;29.93;;
5147;SDS011;2592;48.140;7.614;2024-01-15T06:08:00;53.03;;;31.60;;
5147;SDS011;2592;48.140;7.614;2024-01-15T06:10:26;55.47;;;31.73;;
5147;SDS011;2592;48.140;7.614;2024-01-15T06:12:53;55.00;;;30.57;;
5147;SDS011;2592;48.140;7.614;2024-01-15T06:15:19;64.30;;;35.60;;
5147;SDS011;2592;48.140;7.614;2024-01-15T06:17:46;63.95;;;34.15;;
5147;SDS011;2592;48.140;7.614;2024-01-15T06:20:12;47.23;;;29.83;;
5147;SDS011;2592;48.140;7.614;2024-01-15T06:22:39;64.43;;;36.57;;
5147;SDS011;2592;48.140;7.614;2024-01-15T06:25:07;111.83;;;57.83;;
5147;SDS011;2592;48.140;7.614;2024-01-15T06:27:34;88.03;;;52.00;;
5147;SDS011;2592;48.140;7.614;2024-01-15T06:30:00;53.17;;;33.17;;
5147;SDS011;2592;48.140;7.614;2024-01-15T06:32:27;51.93;;;30.23;;
5147;SDS011;2592;48.140;7.614;2024-01-15T06:34:53;51.33;;;31.83;;
5147;SDS011;2592;48.140;7.614;2024-01-15T06:37:19;69.50;;;46.77;;
5147;SDS011;2592;48.140;7.614;2024-01-15T06:39:46;67.00;;;41.87;;
5147;SDS011;2592;48.140;7.614;2024-01-15T06:42:14;59.50;;;36.77;;
5147;SDS011;2592;48.140;7.614;2024-01-15T06:44:40;56.30;;;35.03;;
5147;SDS011;2592;48.140;7.614;2024-01-15T06:47:07;48.53;;;28.33;;
5147;SDS011;2592;48.140;7.614;2024-01-15T06:49:33;49.30;;;30.50;;
5147;SDS011;2592;48.140;7.614;2024-01-15T06:52:00;54.83;;;30.33;;
5147;SDS011;2592;48.140;7.614;2024-01-15T06:54:26;45.20;;;29.47;;
5147;SDS011;2592;48.140;7.614;2024-01-15T06:56:52;47.60;;;27.83;;
5147;SDS011;2592;48.140;7.614;2024-01-15T06:59:20;47.50;;;29.53;;
5147;SDS011;2592;48.140;7.614;2024-01-15T07:01:47;50.30;;;28.93;;
5147;SDS011;2592;48.140;7.614;2024-01-15T07:04:13;48.27;;;27.90;;
5147;SDS011;2592;48.140;7.614;2024-01-15T07:06:40;49.20;;;28.27;;
5147;SDS011;2592;48.140;7.614;2024-01-15T07:09:06;43.50;;;26.67;;
5147;SDS011;2592;48.140;7.614;2024-01-15T07:11:34;47.03;;;28.37;;
5147;SDS011;2592;48.140;7.614;2024-01-15T07:14:00;54.10;;;29.20;;
5147;SDS011;2592;48.140;7.614;2024-01-15T07:16:28;46.07;;;27.40;;
5147;SDS011;2592;48.140;7.614;2024-01-15T07:18:54;50.27;;;27.27;;
5147;SDS011;2592;48.140;7.614;2024-01-15T07:21:21;50.90;;;28.40;;
5147;SDS011;2592;48.140;7.614;2024-01-15T07:23:47;47.13;;;28.27;;
5147;SDS011;2592;48.140;7.614;2024-01-15T07:26:13;50.60;;;29.00;;
5147;SDS011;2592;48.140;7.614;2024-01-15T07:28:40;44.93;;;26.23;;
5147;SDS011;2592;48.140;7.614;2024-01-15T07:31:06;44.50;;;26.77;;
5147;SDS011;2592;48.140;7.614;2024-01-15T07:33:35;48.37;;;29.23;;
5147;SDS011;2592;48.140;7.614;2024-01-15T07:36:01;42.50;;;25.23;;
5147;SDS011;2592;48.140;7.614;2024-01-15T07:38:28;54.00;;;29.57;;
5147;SDS011;2592;48.140;7.614;2024-01-15T07:40:54;46.07;;;26.73;;
5147;SDS011;2592;48.140;7.614;2024-01-15T07:43:21;44.10;;;28.40;;
5147;SDS011;2592;48.140;7.614;2024-01-15T07:45:47;47.23;;;28.00;;
5147;SDS011;2592;48.140;7.614;2024-01-15T07:48:14;43.17;;;26.10;;
5147;SDS011;2592;48.140;7.614;2024-01-15T07:50:42;43.30;;;26.90;;
5147;SDS011;2592;48.140;7.614;2024-01-15T07:53:08;46.87;;;26.77;;
5147;SDS011;2592;48.140;7.614;2024-01-15T07:55:35;45.93;;;25.77;;
5147;SDS011;2592;48.140;7.614;2024-01-15T07:58:02;42.07;;;24.70;;
5147;SDS011;2592;48.140;7.614;2024-01-15T08:00:29;75.13;;;39.80;;
5147;SDS011;2592;48.140;7.614;2024-01-15T08:02:56;39.30;;;24.30;;
5147;SDS011;2592;48.140;7.614;2024-01-15T08:05:22;41.30;;;24.90;;
5147;SDS011;2592;48.140;7.614;2024-01-15T08:07:50;43.73;;;25.43;;
5147;SDS011;2592;48.140;7.614;2024-01-15T08:10:16;39.63;;;24.50;;
5147;SDS011;2592;48.140;7.614;2024-01-15T08:12:43;35.77;;;22.50;;
5147;SDS011;2592;48.140;7.614;2024-01-15T08:15:09;36.33;;;22.43;;
5147;SDS011;2592;48.140;7.614;2024-01-15T08:17:36;40.57;;;22.43;;
5147;SDS011;2592;48.140;7.614;2024-01-15T08:20:02;38.73;;;22.70;;
5147;SDS011;2592;48.140;7.614;2024-01-15T08:22:30;37.20;;;24.93;;
5147;SDS011;2592;48.140;7.614;2024-01-15T08:24:57;37.63;;;23.13;;
5147;SDS011;2592;48.140;7.614;2024-01-15T08:27:24;35.77;;;21.20;;
5147;SDS011;2592;48.140;7.614;2024-01-15T08:29:50;38.03;;;22.27;;
5147;SDS011;2592;48.140;7.614;2024-01-15T08:32:17;43.23;;;24.53;;
5147;SDS011;2592;48.140;7.614;2024-01-15T08:34:43;33.10;;;21.20;;
5147;SDS011;2592;48.140;7.614;2024-01-15T08:37:11;37.63;;;20.57;;
5147;SDS011;2592;48.140;7.614;2024-01-15T08:39:38;30.97;;;19.47;;
5147;SDS011;2592;48.140;7.614;2024-01-15T08:42:06;36.10;;;22.30;;
5147;SDS011;2592;48.140;7.614;2024-01-15T08:44:32;31.77;;;19.27;;
5147;SDS011;2592;48.140;7.614;2024-01-15T08:46:59;31.50;;;19.77;;
5147;SDS011;2592;48.140;7.614;2024-01-15T08:49:25;30.50;;;18.97;;
5147;SDS011;2592;48.140;7.614;2024-01-15T08:51:52;27.53;;;17.53;;
5147;SDS011;2592;48.140;7.614;2024-01-15T08:54:18;29.60;;;17.60;;
5147;SDS011;2592;48.140;7.614;2024-01-15T08:56:45;28.60;;;18.23;;
5147;SDS011;2592;48.140;7.614;2024-01-15T08:59:13;26.47;;;16.67;;
5147;SDS011;2592;48.140;7.614;2024-01-15T09:01:40;27.43;;;17.30;;
5147;SDS011;2592;48.140;7.614;2024-01-15T09:04:06;24.73;;;16.30;;
5147;SDS011;2592;48.140;7.614;2024-01-15T09:06:32;25.97;;;17.63;;
5147;SDS011;2592;48.140;7.614;2024-01-15T09:08:59;25.63;;;16.23;;
5147;SDS011;2592;48.140;7.614;2024-01-15T09:11:26;30.07;;;16.33;;
5147;SDS011;2592;48.140;7.614;2024-01-15T09:13:52;29.10;;;17.27;;
5147;SDS011;2592;48.140;7.614;2024-01-15T09:16:20;21.97;;;14.50;;
5147;SDS011;2592;48.140;7.614;2024-01-15T09:18:46;21.87;;;14.17;;
5147;SDS011;2592;48.140;7.614;2024-01-15T09:21:13;17.17;;;12.17;;
5147;SDS011;2592;48.140;7.614;2024-01-15T09:23:39;16.93;;;12.47;;
5147;SDS011;2592;48.140;7.614;2024-01-15T09:26:07;20.83;;;13.20;;
5147;SDS011;2592;48.140;7.614;2024-01-15T09:28:34;19.10;;;12.30;;
5147;SDS011;2592;48.140;7.614;2024-01-15T09:31:00;18.50;;;12.20;;
5147;SDS011;2592;48.140;7.614;2024-01-15T09:33:28;15.27;;;10.90;;
5147;SDS011;2592;48.140;7.614;2024-01-15T09:35:54;41.70;;;20.27;;
5147;SDS011;2592;48.140;7.614;2024-01-15T09:38:21;18.63;;;12.37;;
5147;SDS011;2592;48.140;7.614;2024-01-15T09:40:49;22.97;;;11.30;;
5147;SDS011;2592;48.140;7.614;2024-01-15T09:43:15;15.77;;;11.03;;
5147;SDS011;2592;48.140;7.614;2024-01-15T09:45:42;17.67;;;11.67;;
5147;SDS011;2592;48.140;7.614;2024-01-15T09:48:09;20.53;;;12.67;;
5147;SDS011;2592;48.140;7.614;2024-01-15T09:50:37;17.30;;;11.57;;
5147;SDS011;2592;48.140;7.614;2024-01-15T09:53:03;17.10;;;11.33;;
5147;SDS011;2592;48.140;7.614;2024-01-15T09:55:31;15.77;;;10.90;;
5147;SDS011;2592;48.140;7.614;2024-01-15T09:57:58;15.37;;;10.90;;
5147;SDS011;2592;48.140;7.614;2024-01-15T10:00:26;22.80;;;14.63;;
5147;SDS011;2592;48.140;7.614;2024-01-15T10:02:52;18.23;;;12.90;;
5147;SDS011;2592;48.140;7.614;2024-01-15T10:05:19;18.10;;;11.87;;
5147;SDS011;2592;48.140;7.614;2024-01-15T10:07:47;16.97;;;12.80;;
5147;SDS011;2592;48.140;7.614;2024-01-15T10:10:15;18.33;;;12.83;;
5147;SDS011;2592;48.140;7.614;2024-01-15T10:12:41;23.03;;;13.93;;
5147;SDS011;2592;48.140;7.614;2024-01-15T10:15:09;20.57;;;13.73;;
5147;SDS011;2592;48.140;7.614;2024-01-15T10:17:36;24.97;;;16.17;;
5147;SDS011;2592;48.140;7.614;2024-01-15T10:20:06;27.20;;;16.63;;
5147;SDS011;2592;48.140;7.614;2024-01-15T10:22:34;18.17;;;12.57;;
5147;SDS011;2592;48.140;7.614;2024-01-15T10:25:04;20.90;;;14.17;;
5147;SDS011;2592;48.140;7.614;2024-01-15T10:27:31;21.40;;;13.73;;
5147;SDS011;2592;48.140;7.614;2024-01-15T10:29:58;24.43;;;14.83;;
5147;SDS011;2592;48.140;7.614;2024-01-15T10:32:25;21.03;;;14.20;;
5147;SDS011;2592;48.140;7.614;2024-01-15T10:34:52;22.60;;;14.77;;
5147;SDS011;2592;48.140;7.614;2024-01-15T10:37:18;23.83;;;15.87;;
5147;SDS011;2592;48.140;7.614;2024-01-15T10:39:46;23.50;;;15.60;;
5147;SDS011;2592;48.140;7.614;2024-01-15T10:42:13;23.00;;;16.20;;
5147;SDS011;2592;48.140;7.614;2024-01-15T10:44:40;23.30;;;15.37;;
5147;SDS011;2592;48.140;7.614;2024-01-15T10:47:08;23.77;;;15.13;;
5147;SDS011;2592;48.140;7.614;2024-01-15T10:49:35;24.93;;;15.40;;
5147;SDS011;2592;48.140;7.614;2024-01-15T10:52:01;23.57;;;15.40;;
5147;SDS011;2592;48.140;7.614;2024-01-15T10:54:28;21.87;;;14.37;;
5147;SDS011;2592;48.140;7.614;2024-01-15T10:56:55;22.33;;;12.47;;
5147;SDS011;2592;48.140;7.614;2024-01-15T10:59:23;27.70;;;18.67;;
5147;SDS011;2592;48.140;7.614;2024-01-15T11:01:50;24.00;;;15.20;;
5147;SDS011;2592;48.140;7.614;2024-01-15T11:04:18;33.80;;;19.20;;
5147;SDS011;2592;48.140;7.614;2024-01-15T11:06:46;23.97;;;16.50;;
5147;SDS011;2592;48.140;7.614;2024-01-15T11:09:13;21.20;;;13.10;;
5147;SDS011;2592;48.140;7.614;2024-01-15T11:11:40;19.47;;;11.43;;
5147;SDS011;2592;48.140;7.614;2024-01-15T11:14:07;20.50;;;12.77;;
5147;SDS011;2592;48.140;7.614;2024-01-15T11:19:19;12.73;;;8.77;;
5147;SDS011;2592;48.140;7.614;2024-01-15T11:21:45;16.27;;;11.00;;
5147;SDS011;2592;48.140;7.614;2024-01-15T11:24:12;16.20;;;10.93;;
5147;SDS011;2592;48.140;7.614;2024-01-15T11:26:58;21.77;;;14.07;;
5147;SDS011;2592;48.140;7.614;2024-01-15T11:29:31;17.73;;;12.27;;
5147;SDS011;2592;48.140;7.614;2024-01-15T11:31:59;9.60;;;6.57;;
5147;SDS011;2592;48.140;7.614;2024-01-15T11:37:17;8.70;;;6.23;;
5147;SDS011;2592;48.140;7.614;2024-01-15T11:39:44;6.70;;;5.00;;
5147;SDS011;2592;48.140;7.614;2024-01-15T11:42:12;8.63;;;5.33;;
5147;SDS011;2592;48.140;7.614;2024-01-15T11:44:39;6.20;;;4.50;;
5147;SDS011;2592;48.140;7.614;2024-01-15T11:47:06;7.40;;;4.73;;
5147;SDS011;2592;48.140;7.614;2024-01-15T11:49:37;12.50;;;8.13;;
5147;SDS011;2592;48.140;7.614;2024-01-15T11:52:11;7.20;;;5.33;;
5147;SDS011;2592;48.140;7.614;2024-01-15T11:54:39;8.70;;;5.53;;
5147;SDS011;2592;48.140;7.614;2024-01-15T11:57:07;9.77;;;4.00;;
5147;SDS011;2592;48.140;7.614;2024-01-15T11:59:35;6.93;;;3.93;;
5147;SDS011;2592;48.140;7.614;2024-01-15T12:02:02;5.77;;;3.90;;
5147;SDS011;2592;48.140;7.614;2024-01-15T12:04:29;5.77;;;3.87;;
5147;SDS011;2592;48.140;7.614;2024-01-15T12:06:55;5.87;;;4.30;;
5147;SDS011;2592;48.140;7.614;2024-01-15T12:09:21;4.30;;;3.60;;
5147;SDS011;2592;48.140;7.614;2024-01-15T12:11:50;5.70;;;3.60;;
5147;SDS011;2592;48.140;7.614;2024-01-15T12:14:17;6.40;;;3.97;;
5147;SDS011;2592;48.140;7.614;2024-01-15T12:16:45;5.80;;;4.43;;
5147;SDS011;2592;48.140;7.614;2024-01-15T12:19:11;5.77;;;4.37;;
5147;SDS011;2592;48.140;7.614;2024-01-15T12:21:38;6.60;;;4.03;;
5147;SDS011;2592;48.140;7.614;2024-01-15T12:24:06;4.60;;;3.57;;
5147;SDS011;2592;48.140;7.614;2024-01-15T12:26:33;4.20;;;3.27;;
5147;SDS011;2592;48.140;7.614;2024-01-15T12:29:02;12.87;;;7.90;;
5147;SDS011;2592;48.140;7.614;2024-01-15T12:31:29;4.73;;;3.30;;
5147;SDS011;2592;48.140;7.614;2024-01-15T12:33:55;5.63;;;3.33;;
5147;SDS011;2592;48.140;7.614;2024-01-15T12:36:22;6.03;;;3.60;;
5147;SDS011;2592;48.140;7.614;2024-01-15T12:38:48;5.03;;;3.27;;
5147;SDS011;2592;48.140;7.614;2024-01-15T12:41:15;6.20;;;3.47;;
5147;SDS011;2592;48.140;7.614;2024-01-15T12:43:41;2.93;;;2.73;;
5147;SDS011;2592;48.140;7.614;2024-01-15T12:46:09;5.30;;;4.10;;
5147;SDS011;2592;48.140;7.614;2024-01-15T12:48:35;3.50;;;3.10;;
5147;SDS011;2592;48.140;7.614;2024-01-15T12:51:05;4.23;;;3.27;;
5147;SDS011;2592;48.140;7.614;2024-01-15T12:53:31;3.23;;;2.93;;
5147;SDS011;2592;48.140;7.614;2024-01-15T12:55:58;4.97;;;3.50;;
5147;SDS011;2592;48.140;7.614;2024-01-15T12:58:24;4.30;;;3.27;;
5147;SDS011;2592;48.140;7.614;2024-01-15T13:00:51;7.03;;;3.33;;
5147;SDS011;2592;48.140;7.614;2024-01-15T13:03:18;3.90;;;3.40;;
5147;SDS011;2592;48.140;7.614;2024-01-15T13:05:45;3.30;;;2.83;;
5147;SDS011;2592;48.140;7.614;2024-01-15T13:08:11;2.97;;;2.67;;
5147;SDS011;2592;48.140;7.614;2024-01-15T13:10:38;3.53;;;3.00;;
5147;SDS011;2592;48.140;7.614;2024-01-15T13:13:07;6.57;;;5.50;;
5147;SDS011;2592;48.140;7.614;2024-01-15T13:15:34;5.30;;;3.70;;
5147;SDS011;2592;48.140;7.614;2024-01-15T13:18:01;6.60;;;3.77;;
5147;SDS011;2592;48.140;7.614;2024-01-15T13:20:28;7.00;;;4.20;;
5147;SDS011;2592;48.140;7.614;2024-01-15T13:22:55;7.50;;;5.33;;
5147;SDS011;2592;48.140;7.614;2024-01-15T13:25:21;10.97;;;7.20;;
5147;SDS011;2592;48.140;7.614;2024-01-15T13:27:48;6.87;;;4.80;;
5147;SDS011;2592;48.140;7.614;2024-01-15T13:30:14;4.27;;;3.30;;
5147;SDS011;2592;48.140;7.614;2024-01-15T13:32:41;8.80;;;3.67;;
5147;SDS011;2592;48.140;7.614;2024-01-15T13:35:08;4.63;;;4.07;;
5147;SDS011;2592;48.140;7.614;2024-01-15T13:37:39;12.47;;;6.83;;
5147;SDS011;2592;48.140;7.614;2024-01-15T13:40:07;18.03;;;8.47;;
5147;SDS011;2592;48.140;7.614;2024-01-15T13:42:34;8.23;;;5.67;;
5147;SDS011;2592;48.140;7.614;2024-01-15T13:45:03;4.03;;;3.23;;
5147;SDS011;2592;48.140;7.614;2024-01-15T13:47:31;5.00;;;3.87;;
5147;SDS011;2592;48.140;7.614;2024-01-15T13:49:58;4.00;;;3.60;;
5147;SDS011;2592;48.140;7.614;2024-01-15T13:52:24;2.87;;;2.63;;
5147;SDS011;2592;48.140;7.614;2024-01-15T13:54:52;6.37;;;4.20;;
5147;SDS011;2592;48.140;7.614;2024-01-15T13:57:18;5.63;;;3.70;;
5147;SDS011;2592;48.140;7.614;2024-01-15T13:59:45;4.10;;;3.20;;
5147;SDS011;2592;48.140;7.614;2024-01-15T14:02:11;4.87;;;3.27;;
5147;SDS011;2592;48.140;7.614;2024-01-15T14:04:39;4.53;;;3.30;;
5147;SDS011;2592;48.140;7.614;2024-01-15T14:07:06;10.17;;;8.40;;
5147;SDS011;2592;48.140;7.614;2024-01-15T14:09:33;8.10;;;5.60;;
5147;SDS011;2592;48.140;7.614;2024-01-15T14:12:00;6.10;;;4.83;;
5147;SDS011;2592;48.140;7.614;2024-01-15T14:14:27;11.80;;;7.57;;
5147;SDS011;2592;48.140;7.614;2024-01-15T14:16:54;8.60;;;6.43;;
5147;SDS011;2592;48.140;7.614;2024-01-15T14:19:20;6.50;;;5.00;;
5147;SDS011;2592;48.140;7.614;2024-01-15T14:21:47;6.07;;;5.00;;
5147;SDS011;2592;48.140;7.614;2024-01-15T14:24:13;6.03;;;4.43;;
5147;SDS011;2592;48.140;7.614;2024-01-15T14:26:41;4.30;;;3.90;;
5147;SDS011;2592;48.140;7.614;2024-01-15T14:29:08;12.67;;;8.83;;
5147;SDS011;2592;48.140;7.614;2024-01-15T14:31:35;7.23;;;5.40;;
5147;SDS011;2592;48.140;7.614;2024-01-15T14:34:01;6.13;;;4.90;;
5147;SDS011;2592;48.140;7.614;2024-01-15T14:36:28;8.67;;;6.50;;
5147;SDS011;2592;48.140;7.614;2024-01-15T14:38:55;9.23;;;5.73;;
5147;SDS011;2592;48.140;7.614;2024-01-15T14:41:21;7.33;;;6.10;;
5147;SDS011;2592;48.140;7.614;2024-01-15T14:43:48;6.30;;;4.43;;
5147;SDS011;2592;48.140;7.614;2024-01-15T14:46:15;7.73;;;5.87;;
5147;SDS011;2592;48.140;7.614;2024-01-15T14:48:42;10.00;;;6.03;;
5147;SDS011;2592;48.140;7.614;2024-01-15T14:51:10;6.30;;;4.90;;
5147;SDS011;2592;48.140;7.614;2024-01-15T14:53:36;5.30;;;4.80;;
5147;SDS011;2592;48.140;7.614;2024-01-15T14:56:02;5.87;;;4.80;;